Time;durP1;ratioP1;P1;durP2;ratioP2;P2;SDS_P1;SDS_P2;PMS_P1;PMS_P2;Temp;Humidity;BMP_temperature;BMP_pressure;BME280_temperature;BME280_humidity;BME280_pressure;Samples;Min_cycle;Max_cycle;Signal;HPM_P1;HPM_P2
2023/11/19 00:01:18;;;;;;;4.47;4.07;;;6.00;99.90;;;-141.84;100.00;108302.56;5027438;28;20229;-60
2023/11/19 00:03:47;;;;;;;4.53;4.07;;;6.10;99.90;;;-141.84;100.00;109100.59;5029471;28;20225;-60
2023/11/19 00:06:19;;;;;;;3.90;3.50;;;6.10;99.90;;;-141.84;100.00;108834.56;5032926;28;20751;-61
2023/11/19 00:08:47;;;;;;;4.00;3.40;;;6.00;99.90;;;-141.84;100.00;108568.56;5048717;28;20627;-61
2023/11/19 00:11:16;;;;;;;3.90;3.60;;;6.10;99.90;;;-141.84;100.00;108568.56;5049299;28;20229;-60
2023/11/19 00:13:44;;;;;;;4.23;3.50;;;6.10;99.90;;;-141.84;100.00;108568.56;5049702;28;20731;-60
2023/11/19 00:16:12;;;;;;;3.90;3.50;;;6.10;99.90;;;-141.84;100.00;107504.66;5047176;28;20343;-60
2023/11/19 00:18:40;;;;;;;4.13;3.70;;;6.10;99.90;;;-141.84;100.00;106972.81;5046699;28;20217;-61
2023/11/19 00:21:09;;;;;;;3.93;3.23;;;6.10;99.90;;;-141.84;100.00;109366.66;5048234;28;21141;-60
2023/11/19 00:23:39;;;;;;;3.57;3.20;;;6.00;99.90;;;-141.84;100.00;113359.50;5051146;28;20301;-60
2023/11/19 00:26:07;;;;;;;3.50;3.20;;;6.00;99.90;;;-141.84;100.00;116823.13;5051671;28;20251;-60
2023/11/19 00:28:38;;;;;;;3.90;3.50;;;6.00;99.90;;;-141.84;100.00;118156.06;5051055;28;20253;-61
2023/11/19 00:31:07;;;;;;;3.73;3.33;;;6.00;99.90;;;-141.84;100.00;117089.69;5051393;28;20234;-60
2023/11/19 00:33:37;;;;;;;3.10;2.80;;;6.00;99.90;;;-141.84;100.00;117889.44;5051497;28;20224;-60
2023/11/19 00:36:17;;;;;;;3.63;2.83;;;6.00;99.90;;;-141.84;100.00;118422.72;5051349;28;20397;-59
2023/11/19 00:38:47;;;;;;;3.60;3.30;;;6.00;99.90;;;-141.84;100.00;118956.03;5050736;28;20290;-60
2023/11/19 00:41:16;;;;;;;2.90;2.70;;;5.90;99.90;;;-141.84;100.00;118956.03;5051290;28;20588;-61
2023/11/19 00:43:45;;;;;;;3.40;3.00;;;5.90;99.90;;;-141.84;100.00;119222.75;5051759;28;20243;-60
2023/11/19 00:46:13;;;;;;;2.80;2.60;;;5.90;99.90;;;-141.84;100.00;119224.81;5050911;28;20708;-60
2023/11/19 00:48:42;;;;;;;3.03;2.60;;;5.90;99.90;;;-141.84;100.00;119224.81;5051208;28;20233;-60
2023/11/19 00:51:12;;;;;;;2.60;2.40;;;5.90;99.90;;;-141.84;100.00;119224.81;5051294;28;20324;-60
2023/11/19 00:53:41;;;;;;;3.87;2.63;;;5.90;99.90;;;-141.84;100.00;119224.81;5051287;28;20275;-61
2023/11/19 00:56:13;;;;;;;2.40;2.20;;;5.90;99.90;;;-141.84;100.00;119224.81;5051122;28;20324;-61
2023/11/19 00:58:42;;;;;;;2.60;2.40;;;5.80;99.90;;;-141.84;100.00;119224.81;5050834;28;20732;-60
2023/11/19 01:01:10;;;;;;;3.13;2.10;;;5.80;99.90;;;-141.84;100.00;119224.81;5050736;28;20249;-60
2023/11/19 01:03:38;;;;;;;3.43;2.20;;;5.80;99.90;;;-141.84;100.00;119224.81;5049428;28;20279;-60
2023/11/19 01:06:08;;;;;;;2.30;2.10;;;5.80;99.90;;;-141.84;100.00;119224.81;5050769;28;20590;-59
2023/11/19 01:08:36;;;;;;;2.30;2.10;;;5.80;99.90;;;-141.84;100.00;119224.81;5051087;28;20317;-60
2023/11/19 01:11:05;;;;;;;1.97;1.87;;;5.80;99.90;;;-141.84;100.00;119224.81;5051043;28;20665;-60
2023/11/19 01:13:34;;;;;;;2.00;1.80;;;5.80;99.90;;;-141.84;100.00;119224.81;5050763;28;20256;-61
2023/11/19 01:16:03;;;;;;;1.80;1.70;;;5.80;99.90;;;-141.84;100.00;119224.81;5050679;28;20255;-60
2023/11/19 01:18:31;;;;;;;2.23;2.03;;;5.80;99.90;;;-141.84;100.00;119224.81;5050478;28;20228;-61
2023/11/19 01:20:59;;;;;;;1.80;1.70;;;5.80;99.90;;;-141.84;100.00;118422.72;5030917;28;20249;-61
2023/11/19 01:23:27;;;;;;;1.97;1.77;;;5.90;99.90;;;-141.84;100.00;117622.84;5030964;28;20205;-60
2023/11/19 01:25:56;;;;;;;2.30;2.10;;;5.90;99.90;;;-141.84;100.00;117622.84;5036603;28;20284;-60
2023/11/19 01:28:24;;;;;;;1.73;1.63;;;5.90;99.90;;;-141.84;100.00;117889.44;5050469;28;20647;-60
2023/11/19 01:30:54;;;;;;;2.77;1.47;;;5.90;99.90;;;-141.84;100.00;118422.72;5049619;28;20251;-61
2023/11/19 01:33:24;;;;;;;1.73;1.63;;;5.90;99.90;;;-141.84;100.00;118156.06;5049672;28;20225;-60
2023/11/19 01:35:53;;;;;;;2.80;2.50;;;5.90;99.90;;;-141.84;100.00;119222.75;5050490;28;20251;-60
2023/11/19 01:38:21;;;;;;;3.40;2.20;;;5.90;99.90;;;-141.84;100.00;117889.44;5050737;28;20240;-61
2023/11/19 01:40:49;;;;;;;1.97;1.87;;;6.00;99.90;;;-141.84;100.00;118422.72;5051070;28;20325;-60
2023/11/19 01:43:34;;;;;;;2.13;1.93;;;6.00;99.90;;;-141.84;100.00;117889.44;5050435;28;20229;-59
2023/11/19 01:46:06;;;;;;;2.30;1.73;;;6.00;99.90;;;-141.84;100.00;118156.06;5050344;28;20315;-60
2023/11/19 01:48:39;;;;;;;2.30;2.10;;;6.00;99.90;;;-141.84;100.00;117356.25;5050514;28;20225;-60
2023/11/19 01:51:09;;;;;;;2.50;2.30;;;6.00;99.90;;;-141.84;100.00;117622.84;5049076;28;20665;-60
2023/11/19 01:53:40;;;;;;;2.83;2.63;;;6.00;99.90;;;-141.84;100.00;118156.06;5048166;28;20244;-60
2023/11/19 01:56:10;;;;;;;2.83;2.63;;;6.00;99.90;;;-141.84;100.00;116290.06;5050118;28;20263;-61
2023/11/19 01:58:39;;;;;;;2.57;2.37;;;6.00;99.90;;;-141.84;100.00;115490.59;5048009;28;20320;-60
2023/11/19 02:01:10;;;;;;;2.10;1.90;;;6.00;99.90;;;-141.84;100.00;116556.59;5050242;28;20256;-60
2023/11/19 02:03:39;;;;;;;2.00;1.90;;;6.00;99.90;;;-141.84;100.00;115490.59;5049764;28;20225;-60
2023/11/19 02:06:10;;;;;;;1.80;1.70;;;6.00;99.90;;;-141.84;100.00;114158.53;5050103;28;20229;-61
2023/11/19 02:08:38;;;;;;;2.57;1.90;;;6.00;99.90;;;-141.84;100.00;116823.13;5050452;28;20225;-61
2023/11/19 02:11:08;;;;;;;2.80;1.80;;;5.90;99.90;;;-141.84;100.00;118422.72;5050758;28;20293;-59
2023/11/19 02:13:39;;;;;;;1.60;1.50;;;5.90;99.90;;;-141.84;100.00;118156.06;5050253;28;20233;-61
2023/11/19 02:16:10;;;;;;;1.77;1.67;;;5.90;99.90;;;-141.84;100.00;118689.38;5051351;28;20232;-59
2023/11/19 02:18:39;;;;;;;2.10;1.90;;;5.90;99.90;;;-141.84;100.00;118956.03;5053775;28;20229;-59
2023/11/19 02:21:07;;;;;;;1.90;1.80;;;5.80;99.90;;;-141.84;100.00;119224.81;5053882;28;20320;-59
2023/11/19 02:23:35;;;;;;;2.10;1.90;;;5.80;99.90;;;-141.84;100.00;119224.81;5053749;28;20285;-59
2023/11/19 02:26:15;;;;;;;2.27;1.80;;;5.80;99.90;;;-141.84;100.00;119224.81;5053747;28;20663;-60
2023/11/19 02:28:45;;;;;;;2.03;1.90;;;5.80;99.90;;;-141.84;100.00;119224.81;5053810;28;20213;-60
2023/11/19 02:31:14;;;;;;;2.20;1.90;;;5.80;99.90;;;-141.84;100.00;119224.81;5053130;28;20587;-59
2023/11/19 02:33:42;;;;;;;2.20;2.00;;;5.80;99.90;;;-141.84;100.00;119224.81;5053704;28;20233;-60
2023/11/19 02:36:11;;;;;;;2.00;1.90;;;5.90;99.90;;;-141.84;100.00;119224.81;5053602;28;20362;-60
2023/11/19 02:38:39;;;;;;;1.90;1.80;;;5.80;99.90;;;-141.84;100.00;119224.81;5053567;28;20311;-59
2023/11/19 02:41:09;;;;;;;2.27;2.07;;;5.80;99.90;;;-141.84;100.00;119224.81;5053597;28;20227;-61
2023/11/19 02:43:39;;;;;;;2.30;2.10;;;5.80;99.90;;;-141.84;100.00;119224.81;5053313;28;20233;-60
2023/11/19 02:46:09;;;;;;;2.20;2.00;;;5.80;99.90;;;-141.84;100.00;119224.81;5053340;28;20644;-61
2023/11/19 02:48:40;;;;;;;2.23;2.03;;;5.90;99.90;;;-141.84;100.00;119224.81;5056341;28;20308;-60
2023/11/19 02:51:09;;;;;;;1.87;1.77;;;5.90;99.90;;;-141.84;100.00;119224.81;5053451;28;20225;-59
2023/11/19 02:53:39;;;;;;;2.13;1.93;;;5.80;99.90;;;-141.84;100.00;119224.81;5053255;28;20206;-60
2023/11/19 02:56:24;;;;;;;2.40;2.20;;;5.80;99.90;;;-141.84;100.00;119224.81;5052943;28;20650;-60
2023/11/19 02:58:54;;;;;;;2.37;2.10;;;5.90;99.90;;;-141.84;100.00;119224.81;5051756;28;20224;-60
2023/11/19 03:01:30;;;;;;;2.40;2.20;;;5.90;99.90;;;-141.84;100.00;119224.81;5053566;28;20233;-60
2023/11/19 03:04:01;;;;;;;2.23;2.03;;;5.90;99.90;;;-141.84;100.00;119224.81;5052255;28;20586;-60
2023/11/19 03:06:30;;;;;;;2.17;1.97;;;5.90;99.90;;;-141.84;100.00;119224.81;5053096;28;20253;-60
2023/11/19 03:08:59;;;;;;;2.40;2.20;;;5.90;99.90;;;-141.84;100.00;119224.81;5051317;28;20248;-59
2023/11/19 03:11:27;;;;;;;2.10;2.00;;;5.90;99.90;;;-141.84;100.00;119224.81;5052911;28;20201;-60
2023/11/19 03:13:55;;;;;;;2.30;2.10;;;6.00;99.90;;;-141.84;100.00;119224.81;5053083;28;20263;-59
2023/11/19 03:16:23;;;;;;;2.13;2.03;;;6.00;99.90;;;-141.84;100.00;119224.81;5052815;28;20743;-59
2023/11/19 03:18:53;;;;;;;2.40;2.13;;;6.00;99.90;;;-141.84;100.00;119224.81;5052615;28;20312;-60
2023/11/19 03:21:28;;;;;;;2.23;2.03;;;6.00;99.90;;;-141.84;100.00;119224.81;5052694;28;20705;-60
2023/11/19 03:23:56;;;;;;;3.33;2.60;;;6.00;99.90;;;-141.84;100.00;119224.81;5052932;28;20369;-60
2023/11/19 03:26:24;;;;;;;2.90;2.47;;;6.00;99.90;;;-141.84;100.00;119224.81;5052012;28;20236;-60
2023/11/19 03:28:52;;;;;;;2.50;2.30;;;6.00;99.90;;;-141.84;100.00;119224.81;5052735;28;20243;-60
2023/11/19 03:31:21;;;;;;;2.20;2.00;;;6.10;99.90;;;-141.84;100.00;119224.81;5052542;28;20771;-60
2023/11/19 03:33:49;;;;;;;2.20;2.00;;;6.10;99.90;;;-141.84;100.00;119224.81;5052313;28;20761;-61
2023/11/19 03:36:18;;;;;;;2.30;2.10;;;6.20;99.90;;;-141.84;100.00;119224.81;5052482;28;20222;-59
2023/11/19 03:38:47;;;;;;;2.50;2.30;;;6.10;99.90;;;-141.84;100.00;119224.81;5052478;28;20249;-60
2023/11/19 03:41:17;;;;;;;3.33;1.90;;;6.20;99.90;;;-141.84;100.00;119224.81;5052853;28;20257;-60
2023/11/19 03:43:45;;;;;;;2.00;1.90;;;6.20;99.90;;;-141.84;100.00;119224.81;5052516;28;20607;-60
2023/11/19 03:46:19;;;;;;;2.00;1.80;;;6.20;99.90;;;-141.84;100.00;119224.81;5052135;28;20660;-60
2023/11/19 03:48:49;;;;;;;2.10;1.90;;;6.20;99.90;;;-141.84;100.00;119224.81;5052060;28;20281;-60
2023/11/19 03:51:18;;;;;;;1.73;1.60;;;6.30;99.90;;;-141.84;100.00;119224.81;5052024;28;20663;-59
2023/11/19 03:53:47;;;;;;;2.30;2.10;;;6.40;99.90;;;-141.84;100.00;119224.81;5032454;28;20230;-61
2023/11/19 03:56:15;;;;;;;1.80;1.70;;;6.30;99.90;;;-141.84;100.00;119224.81;5032339;28;20587;-59
2023/11/19 03:58:43;;;;;;;2.00;1.80;;;6.30;99.90;;;-141.84;100.00;119224.81;5012054;28;20272;-61
2023/11/19 04:01:14;;;;;;;1.60;1.50;;;6.40;99.90;;;-141.84;100.00;119224.81;5027605;28;20250;-60
2023/11/19 04:03:42;;;;;;;1.80;1.70;;;6.40;99.90;;;-141.84;100.00;119224.81;5027343;28;20257;-60
2023/11/19 04:06:14;;;;;;;1.70;1.60;;;6.40;99.90;;;-141.84;100.00;119224.81;5036047;28;20305;-61
2023/11/19 04:08:44;;;;;;;3.17;1.50;;;6.40;99.90;;;-141.84;100.00;119224.81;5031719;28;20637;-61
2023/11/19 04:11:12;;;;;;;2.17;1.47;;;6.50;99.90;;;-141.84;100.00;119224.81;5032463;28;20183;-60
2023/11/19 04:13:40;;;;;;;1.60;1.50;;;6.50;99.90;;;-141.84;100.00;119224.81;5051040;28;20280;-59
2023/11/19 04:16:09;;;;;;;1.30;1.20;;;6.50;99.90;;;-141.84;100.00;119224.81;5036422;28;20305;-59
2023/11/19 04:18:37;;;;;;;1.80;1.40;;;6.50;99.90;;;-141.84;100.00;119224.81;5042462;28;20227;-60
2023/11/19 04:21:08;;;;;;;1.50;1.40;;;6.50;99.90;;;-141.84;100.00;119224.81;5044888;28;20260;-60
2023/11/19 04:23:36;;;;;;;2.50;1.60;;;6.50;99.90;;;-141.84;100.00;119224.81;5031251;28;20212;-60
2023/11/19 04:26:06;;;;;;;1.70;1.60;;;6.60;99.90;;;-141.84;100.00;119224.81;5031995;28;20336;-60
2023/11/19 04:28:37;;;;;;;1.83;1.30;;;6.60;99.90;;;-141.84;100.00;119224.81;5031745;28;20313;-59
2023/11/19 04:31:06;;;;;;;1.80;1.70;;;6.60;99.90;;;-141.84;100.00;119224.81;5031495;28;20560;-60
2023/11/19 04:33:34;;;;;;;1.43;1.20;;;6.60;99.90;;;-141.84;100.00;119224.81;5031419;28;20234;-60
2023/11/19 04:36:03;;;;;;;1.37;1.17;;;6.60;99.90;;;-141.84;100.00;119224.81;5031474;28;20229;-60
2023/11/19 04:38:31;;;;;;;1.27;1.17;;;6.60;99.90;;;-141.84;100.00;119224.81;5030329;28;20248;-60
2023/11/19 04:41:00;;;;;;;1.77;1.23;;;6.60;99.90;;;-141.84;100.00;119224.81;5031757;28;20313;-60
2023/11/19 04:43:29;;;;;;;1.40;1.13;;;6.60;99.90;;;-141.84;100.00;119224.81;5048794;28;20232;-60
2023/11/19 04:45:58;;;;;;;1.33;1.20;;;6.60;99.90;;;-141.84;100.00;119224.81;5051177;28;20224;-60
2023/11/19 04:48:26;;;;;;;1.93;1.20;;;6.70;99.90;;;-141.84;100.00;119224.81;5050806;28;20287;-59
2023/11/19 04:50:54;;;;;;;1.27;1.17;;;6.70;99.90;;;-141.84;100.00;119224.81;5051001;28;20775;-60
2023/11/19 04:53:23;;;;;;;1.17;1.00;;;6.70;99.90;;;-141.84;100.00;119224.81;5050452;28;20285;-60
2023/11/19 04:55:51;;;;;;;1.33;1.17;;;6.70;99.90;;;-141.84;100.00;119224.81;5031478;28;20237;-60
2023/11/19 04:58:20;;;;;;;2.70;1.20;;;6.70;99.90;;;-141.84;100.00;119224.81;5030972;28;20253;-61
2023/11/19 05:00:50;;;;;;;1.20;1.10;;;6.70;99.90;;;-141.84;100.00;119224.81;5030912;28;20767;-59
2023/11/19 05:03:18;;;;;;;1.10;1.00;;;6.70;99.90;;;-141.84;100.00;119224.81;5030207;28;20249;-59
2023/11/19 05:05:46;;;;;;;1.30;1.10;;;6.80;99.90;;;-141.84;100.00;119224.81;5029715;28;20227;-59
2023/11/19 05:08:15;;;;;;;1.00;0.90;;;6.80;99.90;;;-141.84;100.00;119224.81;5031635;28;20285;-59
2023/11/19 05:10:43;;;;;;;2.10;1.10;;;6.80;99.90;;;-141.84;100.00;119224.81;5050556;28;20316;-59
2023/11/19 05:13:12;;;;;;;1.30;1.20;;;6.80;99.90;;;-141.84;100.00;119224.81;5035176;28;20234;-61
2023/11/19 05:15:40;;;;;;;1.17;1.00;;;6.90;99.90;;;-141.84;100.00;119224.81;5042028;28;20236;-59
2023/11/19 05:18:10;;;;;;;1.00;0.90;;;6.80;99.90;;;-141.84;100.00;119224.81;5043695;28;20268;-60
2023/11/19 05:20:38;;;;;;;1.93;1.00;;;6.90;99.90;;;-141.84;100.00;119224.81;5030852;28;20206;-60
2023/11/19 05:23:06;;;;;;;1.73;1.00;;;6.90;99.90;;;-141.84;100.00;119224.81;5031605;28;20228;-60
2023/11/19 05:25:48;;;;;;;2.00;0.93;;;7.00;99.90;;;-141.84;100.00;119224.81;5015673;28;20573;-60
2023/11/19 05:28:16;;;;;;;1.23;1.00;;;6.90;99.90;;;-141.84;100.00;119224.81;5029818;28;20226;-61
2023/11/19 05:30:44;;;;;;;1.10;0.90;;;6.90;99.90;;;-141.84;100.00;119224.81;5030541;28;20276;-60
2023/11/19 05:33:14;;;;;;;3.23;1.30;;;6.90;99.90;;;-141.84;100.00;119224.81;5030814;28;20226;-60
2023/11/19 05:35:42;;;;;;;0.80;0.80;;;7.00;99.90;;;-141.84;100.00;119224.81;5030942;28;20229;-60
2023/11/19 05:38:11;;;;;;;1.47;1.10;;;7.00;99.90;;;-141.84;100.00;119224.81;5031255;28;20296;-60
2023/11/19 05:40:39;;;;;;;1.00;0.90;;;7.00;99.90;;;-141.84;100.00;119224.81;5030318;28;20264;-59
2023/11/19 05:43:08;;;;;;;1.50;0.80;;;7.00;99.90;;;-141.84;100.00;119224.81;5045544;28;20314;-61
2023/11/19 05:45:36;;;;;;;1.43;1.20;;;7.10;99.90;;;-141.84;100.00;119224.81;5050647;28;20232;-60
2023/11/19 05:48:04;;;;;;;1.20;1.00;;;7.10;99.90;;;-141.84;100.00;119224.81;5044226;28;20313;-60
2023/11/19 05:50:34;;;;;;;1.63;1.00;;;7.10;99.90;;;-141.84;100.00;119224.81;5034215;28;20653;-59
2023/11/19 05:53:02;;;;;;;1.27;1.10;;;7.20;99.90;;;-141.84;100.00;119224.81;5055145;28;20201;-61
2023/11/19 05:55:31;;;;;;;0.83;0.83;;;7.20;99.90;;;-141.84;100.00;119224.81;5036244;28;20260;-60
2023/11/19 05:57:59;;;;;;;1.20;0.90;;;7.20;99.90;;;-141.84;100.00;119224.81;5048000;28;20751;-59
2023/11/19 06:00:27;;;;;;;1.23;0.90;;;7.20;99.90;;;-141.84;100.00;119224.81;5044762;28;20590;-73
2023/11/19 06:02:56;;;;;;;1.33;1.23;;;7.20;99.90;;;-141.84;100.00;119224.81;5033990;28;20312;-75
2023/11/19 06:05:24;;;;;;;1.03;0.93;;;7.20;99.90;;;-141.84;100.00;119224.81;5033015;28;20264;-73
2023/11/19 06:07:53;;;;;;;1.77;0.80;;;7.20;99.90;;;-141.84;100.00;119224.81;5034854;28;20232;-73
2023/11/19 06:10:24;;;;;;;1.20;1.00;;;7.10;99.90;;;-141.84;100.00;119224.81;5034076;28;20257;-74
2023/11/19 06:12:55;;;;;;;0.90;0.90;;;7.20;99.90;;;-141.84;100.00;119224.81;5046942;28;20316;-72
2023/11/19 06:15:24;;;;;;;1.30;0.90;;;7.20;99.90;;;-141.84;100.00;119224.81;5044946;28;20625;-75
2023/11/19 06:17:52;;;;;;;1.00;0.90;;;7.20;99.90;;;-141.84;100.00;119224.81;5034296;28;20249;-74
2023/11/19 06:20:20;;;;;;;0.83;0.83;;;7.20;99.90;;;-141.84;100.00;119224.81;5034171;28;20197;-74
2023/11/19 06:22:49;;;;;;;1.00;0.90;;;7.20;99.90;;;-141.84;100.00;119224.81;5034649;28;20284;-73
2023/11/19 06:25:18;;;;;;;1.00;0.90;;;7.30;99.90;;;-141.84;100.00;119224.81;5033562;28;20245;-73
2023/11/19 06:27:46;;;;;;;0.97;0.80;;;7.20;99.90;;;-141.84;100.00;119224.81;5033863;28;20709;-73
2023/11/19 06:30:15;;;;;;;0.80;0.80;;;7.20;99.90;;;-141.84;100.00;119224.81;5034015;28;20308;-74
2023/11/19 06:32:43;;;;;;;2.63;0.80;;;7.30;99.90;;;-141.84;100.00;119224.81;5033266;28;20225;-73
2023/11/19 06:35:11;;;;;;;0.80;0.80;;;7.40;99.90;;;-141.84;100.00;119224.81;5034166;28;20699;-73
2023/11/19 06:37:40;;;;;;;1.00;0.80;;;7.40;99.90;;;-141.84;100.00;119224.81;5033489;28;20248;-73
2023/11/19 06:40:10;;;;;;;0.90;0.90;;;7.50;99.90;;;-141.84;100.00;119224.81;5033491;28;20225;-74
2023/11/19 06:42:39;;;;;;;0.70;0.70;;;7.50;99.90;;;-141.84;100.00;119224.81;5044451;28;20309;-73
2023/11/19 06:45:09;;;;;;;0.90;0.90;;;7.50;99.90;;;-141.84;100.00;119224.81;5044767;28;20244;-74
2023/11/19 06:47:37;;;;;;;0.80;0.80;;;7.50;99.90;;;-141.84;100.00;119224.81;5033588;28;20206;-73
2023/11/19 06:50:09;;;;;;;1.27;1.10;;;7.50;99.90;;;-141.84;100.00;119224.81;5034173;28;20233;-73
2023/11/19 06:52:38;;;;;;;0.80;0.80;;;7.50;99.90;;;-141.84;100.00;119224.81;5033285;28;20686;-72
2023/11/19 06:55:08;;;;;;;0.93;0.90;;;7.40;99.90;;;-141.84;100.00;119224.81;5033239;28;20261;-73
2023/11/19 06:57:36;;;;;;;0.97;0.90;;;7.40;99.90;;;-141.84;100.00;119224.81;5033083;28;20244;-72
2023/11/19 07:00:08;;;;;;;1.43;0.70;;;7.40;99.90;;;-141.84;100.00;119224.81;5033300;28;20623;-74
2023/11/19 07:02:37;;;;;;;0.70;0.70;;;7.30;99.90;;;-141.84;100.00;119224.81;5032634;28;20222;-73
2023/11/19 07:05:06;;;;;;;1.30;0.90;;;7.30;99.90;;;-141.84;100.00;119224.81;5032866;28;20292;-74
2023/11/19 07:07:35;;;;;;;0.90;0.90;;;7.30;99.90;;;-141.84;100.00;119224.81;5031511;28;20226;-74
2023/11/19 07:10:04;;;;;;;1.17;0.90;;;7.30;99.90;;;-141.84;100.00;119224.81;5047152;28;20308;-74
2023/11/19 07:12:32;;;;;;;1.37;1.27;;;7.40;99.90;;;-141.84;100.00;119224.81;5052323;28;20257;-74
2023/11/19 07:15:02;;;;;;;3.27;1.97;;;7.60;99.90;;;-141.84;100.00;119224.81;5047043;28;20284;-74
2023/11/19 07:17:31;;;;;;;1.10;1.00;;;7.60;99.90;;;-141.84;100.00;119224.81;5032796;28;20665;-73
2023/11/19 07:20:00;;;;;;;1.90;0.80;;;7.70;99.90;;;-141.84;100.00;119224.81;5033272;28;20285;-74
2023/11/19 07:22:29;;;;;;;0.73;0.73;;;7.70;99.90;;;-141.84;100.00;119224.81;5050483;28;20390;-76
2023/11/19 07:24:58;;;;;;;0.80;0.80;;;7.70;99.90;;;-141.84;100.00;119224.81;5049831;28;20237;-74
2023/11/19 07:27:27;;;;;;;0.90;0.90;;;7.70;99.90;;;-141.84;100.00;119224.81;5050588;28;20237;-74
2023/11/19 07:29:55;;;;;;;0.80;0.80;;;7.80;99.90;;;-141.84;100.00;119224.81;5052657;28;20661;-60
2023/11/19 07:32:24;;;;;;;0.63;0.63;;;7.90;99.90;;;-141.84;100.00;119224.81;5052619;28;20220;-60
2023/11/19 07:34:53;;;;;;;1.17;1.10;;;7.90;99.90;;;-141.84;100.00;119224.81;5053255;28;20202;-60
2023/11/19 07:37:22;;;;;;;1.13;0.90;;;8.10;99.90;;;-141.84;100.00;119224.81;5052510;28;20312;-60
2023/11/19 07:39:50;;;;;;;1.10;0.90;;;8.10;99.90;;;-141.84;100.00;119224.81;5052308;28;20311;-61
2023/11/19 07:42:18;;;;;;;1.27;0.80;;;8.10;99.90;;;-141.84;100.00;119224.81;5051865;28;20264;-60
2023/11/19 07:44:47;;;;;;;0.70;0.70;;;8.20;99.90;;;-141.84;100.00;119224.81;5052366;28;20304;-60
2023/11/19 07:47:15;;;;;;;1.00;0.83;;;8.30;99.90;;;-141.84;100.00;119224.81;5051886;28;20236;-60
2023/11/19 07:49:43;;;;;;;1.10;0.90;;;8.30;99.90;;;-141.84;100.00;119224.81;5052214;28;20233;-59
2023/11/19 07:52:14;;;;;;;0.67;0.67;;;8.40;99.90;;;-141.84;100.00;119224.81;5052085;28;20221;-60
2023/11/19 07:54:45;;;;;;;1.10;0.73;;;8.40;99.90;;;-141.84;100.00;119224.81;5054859;28;20231;-60
2023/11/19 07:57:13;;;;;;;0.93;0.90;;;8.50;99.90;;;-141.84;100.00;119224.81;5051914;28;20584;-59
2023/11/19 07:59:41;;;;;;;0.90;0.90;;;8.50;99.90;;;-141.84;100.00;119224.81;5052156;28;20229;-60
2023/11/19 08:02:10;;;;;;;0.77;0.77;;;8.50;99.90;;;-141.84;100.00;119224.81;5052319;28;20241;-60
2023/11/19 08:04:44;;;;;;;0.80;0.80;;;8.60;99.90;;;-141.84;100.00;119224.81;5051045;28;20221;-60
2023/11/19 08:07:14;;;;;;;0.80;0.80;;;8.60;99.90;;;-141.84;100.00;119224.81;5051500;28;20240;-59
2023/11/19 08:09:43;;;;;;;1.67;0.97;;;8.60;99.90;;;-141.84;100.00;119224.81;5049840;28;20328;-61
2023/11/19 08:12:11;;;;;;;2.07;0.97;;;8.60;99.90;;;-141.84;100.00;119224.81;5049902;28;20639;-60
2023/11/19 08:14:41;;;;;;;1.00;1.00;;;8.60;99.90;;;-141.84;100.00;119224.81;5048758;28;20260;-59
2023/11/19 08:17:09;;;;;;;2.03;0.80;;;8.70;99.90;;;-141.84;100.00;119224.81;5048612;28;20198;-73
2023/11/19 08:19:37;;;;;;;1.53;0.90;;;8.70;99.90;;;-141.84;100.00;119224.81;5050468;28;20229;-73
2023/11/19 08:22:06;;;;;;;3.40;0.93;;;8.80;99.90;;;-141.84;100.00;119224.81;5050366;28;20623;-73
2023/11/19 08:24:35;;;;;;;1.73;1.00;;;8.90;99.90;;;-141.84;100.00;119224.81;5050777;28;20233;-73
2023/11/19 08:27:04;;;;;;;1.10;1.00;;;9.00;99.90;;;-141.84;100.00;119224.81;5050648;28;20233;-73
2023/11/19 08:29:32;;;;;;;1.07;0.90;;;8.90;99.90;;;-141.84;100.00;119224.81;5050127;28;20205;-73
2023/11/19 08:32:03;;;;;;;1.80;0.93;;;9.00;99.90;;;-141.84;100.00;119224.81;5050756;28;20653;-74
2023/11/19 08:34:31;;;;;;;1.17;1.07;;;9.00;99.90;;;-141.84;100.00;119224.81;5050421;28;20229;-73
2023/11/19 08:37:00;;;;;;;3.67;1.90;;;9.00;99.90;;;-141.84;100.00;119224.81;5050302;28;20282;-73
2023/11/19 08:39:28;;;;;;;1.40;1.10;;;9.00;99.90;;;-141.84;100.00;119224.81;5050074;28;20251;-74
2023/11/19 08:41:58;;;;;;;1.53;1.43;;;9.00;99.90;;;-141.84;100.00;119224.81;5049945;28;20267;-73
2023/11/19 08:44:26;;;;;;;2.20;1.70;;;9.00;99.90;;;-141.84;100.00;119224.81;5046223;28;20223;-73
2023/11/19 08:46:54;;;;;;;1.73;1.50;;;9.00;99.90;;;-141.84;100.00;119224.81;5046012;28;20201;-73
2023/11/19 08:49:23;;;;;;;1.50;1.40;;;9.00;99.90;;;-141.84;100.00;119224.81;5047257;28;20304;-74
2023/11/19 08:51:51;;;;;;;1.60;1.50;;;9.10;99.90;;;-141.84;100.00;119224.81;5041768;28;20225;-73
2023/11/19 08:54:20;;;;;;;1.50;1.37;;;9.20;99.90;;;-141.84;100.00;119224.81;5046620;28;20271;-73
2023/11/19 08:56:48;;;;;;;1.40;1.30;;;9.30;99.90;;;-141.84;100.00;119224.81;5043939;28;20263;-72
2023/11/19 08:59:18;;;;;;;3.07;1.60;;;9.30;99.90;;;-141.84;100.00;119224.81;5045491;28;20216;-73
2023/11/19 09:01:47;;;;;;;1.60;1.20;;;9.40;99.90;;;-141.84;100.00;119224.81;5045483;28;20224;-73
2023/11/19 09:04:15;;;;;;;1.83;1.20;;;9.40;99.90;;;-141.84;100.00;119224.81;5045336;28;20213;-73
2023/11/19 09:06:44;;;;;;;2.10;1.43;;;9.40;99.90;;;-141.84;100.00;119224.81;5042064;28;20307;-73
2023/11/19 09:09:12;;;;;;;1.83;1.33;;;9.50;99.90;;;-141.84;100.00;119224.81;5042648;28;20217;-73
2023/11/19 09:11:40;;;;;;;2.30;1.30;;;9.60;99.90;;;-141.84;100.00;119224.81;5047448;28;20260;-71
2023/11/19 09:14:09;;;;;;;1.67;1.20;;;9.60;99.90;;;-141.84;100.00;119224.81;5047330;28;20205;-76
2023/11/19 09:16:38;;;;;;;1.50;1.20;;;9.70;99.90;;;-141.84;100.00;119224.81;5042822;28;20225;-76
2023/11/19 09:19:07;;;;;;;1.27;1.17;;;9.70;99.90;;;-141.84;100.00;119224.81;5046536;28;20300;-72
2023/11/19 09:21:38;;;;;;;2.00;1.40;;;9.60;99.90;;;-141.84;100.00;119224.81;5043440;28;20782;-72
2023/11/19 09:24:07;;;;;;;1.60;1.30;;;9.60;99.90;;;-141.84;100.00;119224.81;5047721;28;20324;-73
2023/11/19 09:26:36;;;;;;;2.60;1.57;;;9.60;99.90;;;-141.84;100.00;119224.81;5052237;28;20205;-71
2023/11/19 09:29:04;;;;;;;2.20;1.70;;;9.60;99.90;;;-141.84;100.00;119224.81;5053096;28;20193;-72
2023/11/19 09:31:32;;;;;;;2.60;1.50;;;9.70;99.90;;;-141.84;100.00;119224.81;5054078;28;20354;-72
2023/11/19 09:34:02;;;;;;;2.37;1.50;;;9.80;99.90;;;-141.84;100.00;119224.81;5053692;28;20304;-73
2023/11/19 09:36:31;;;;;;;2.37;1.70;;;9.90;99.90;;;-141.84;100.00;119224.81;5053037;28;20237;-72
2023/11/19 09:39:00;;;;;;;3.20;1.80;;;9.90;99.90;;;-141.84;100.00;119224.81;5052844;28;20233;-73
2023/11/19 09:41:28;;;;;;;3.83;1.70;;;10.00;99.90;;;-141.84;100.00;119224.81;5052147;28;20205;-72
2023/11/19 09:43:57;;;;;;;2.87;1.50;;;10.00;99.90;;;-141.84;100.00;119224.81;5053942;28;20225;-72
2023/11/19 09:46:27;;;;;;;1.57;1.47;;;10.00;99.90;;;-141.84;100.00;119224.81;5053492;28;20640;-74
2023/11/19 09:48:59;;;;;;;2.53;1.60;;;10.00;99.90;;;-141.84;100.00;119224.81;5053421;28;20264;-73
2023/11/19 09:51:29;;;;;;;1.80;1.57;;;10.00;99.90;;;-141.84;100.00;119224.81;5053288;28;20306;-73
2023/11/19 09:53:57;;;;;;;2.97;1.60;;;10.10;99.90;;;-141.84;100.00;119224.81;5053940;28;20309;-73
2023/11/19 09:56:29;;;;;;;3.73;1.50;;;10.10;99.90;;;-141.84;100.00;119224.81;5053147;28;20685;-74
2023/11/19 09:58:57;;;;;;;2.30;1.40;;;10.10;99.90;;;-141.84;100.00;119224.81;5051524;28;20239;-71
2023/11/19 10:01:26;;;;;;;2.37;1.70;;;10.10;99.90;;;-141.84;100.00;119224.81;5051200;28;20779;-72
2023/11/19 10:03:58;;;;;;;1.70;1.60;;;10.10;99.90;;;-141.84;100.00;119224.81;5049782;28;20666;-72
2023/11/19 10:06:28;;;;;;;3.13;1.70;;;10.10;99.90;;;-141.84;100.00;119224.81;5052709;28;20224;-71
2023/11/19 10:08:56;;;;;;;2.10;1.87;;;10.10;99.90;;;-141.84;100.00;119224.81;5051879;28;20315;-73